Stations météo

réclame
Mon MeteoGroup
Cartagena, Espagne (8434): Température de l'air & dewpoint: 11.02.2019 13:00:00 - 17.02.2019 13:00:00 (CET)Cartagena, Espagne (8434): Vitesse du vent & gusts: 11.02.2019 13:00:00 - 17.02.2019 13:00:00 (CET)Cartagena, Espagne (8434): Direction du vent: 11.02.2019 13:00:00 - 17.02.2019 13:00:00 (CET)Cartagena, Espagne (8434): Quantités de précipitations: 11.02.2019 13:00:00 - 17.02.2019 13:00:00 (CET)
Date & Time tt [°C] td [°C] ff [km/h] ff [knt] fx [km/h] fx [knt] dd rr [mm]
17.02.2019 13:00:00 - - - - - - - -
17.02.2019 12:00:00 14,7 9,7 10 5 25 13 NNE 0,0
17.02.2019 11:00:00 13,5 8,6 9 5 20 11 NNE 0,0
17.02.2019 10:00:00 12,2 6,9 6 3 18 10 NNW 0,0
17.02.2019 09:00:00 11,6 6,5 5 3 17 9 NNW 0,0
17.02.2019 08:00:00 11,3 6,6 7 4 18 10 NNW 0,0
17.02.2019 07:00:00 11,2 7,5 7 4 17 9 NNW -
17.02.2019 06:00:00 11,2 7,7 7 4 18 10 NNW 0,0
17.02.2019 05:00:00 11,1 8,0 7 4 19 11 NNW 0,0
17.02.2019 04:00:00 11,0 8,1 8 4 22 12 NW 0,0
17.02.2019 03:00:00 11,1 8,2 6 3 18 10 NW 0,0
17.02.2019 02:00:00 11,2 8,2 8 5 20 11 NNW 0,0
17.02.2019 01:00:00 11,6 8,8 5 3 13 7 NNW -
17.02.2019 00:00:00 11,8 8,7 4 2 13 7 NW 0,0
16.02.2019 23:00:00 12,6 9,2 6 4 22 12 N 0,0
16.02.2019 22:00:00 12,6 9,1 7 4 17 9 N 0,0
16.02.2019 21:00:00 12,8 8,9 6 3 22 12 N 0,0
16.02.2019 20:00:00 13,0 9,1 9 5 21 11 NNE 0,0
16.02.2019 19:00:00 13,3 9,0 7 4 22 12 NE -
16.02.2019 18:00:00 13,6 8,7 7 4 30 16 NE 0,0
16.02.2019 17:00:00 14,3 8,7 8 4 31 17 NE 0,0
16.02.2019 16:00:00 14,5 8,9 11 6 29 15 NE 0,0
16.02.2019 15:00:00 14,5 8,7 8 4 29 16 NE 0,0
16.02.2019 14:00:00 14,8 9,2 8 5 32 18 NNE 0,0
16.02.2019 13:00:00 14,4 8,6 11 6 31 17 NNE -
16.02.2019 12:00:00 14,3 9,3 13 7 31 17 NNE 0,0
16.02.2019 11:00:00 14,2 9,0 10 6 34 18 NNE 0,0
16.02.2019 10:00:00 12,6 8,5 13 7 23 12 N 0,0
16.02.2019 09:00:00 11,7 8,6 8 5 17 9 NNW 0,0
16.02.2019 08:00:00 11,1 8,0 6 4 19 10 NNW 0,0
16.02.2019 07:00:00 11,2 8,2 8 4 22 12 NNW -
16.02.2019 06:00:00 11,4 8,3 8 4 22 12 NNW 0,0
16.02.2019 05:00:00 11,4 8,3 9 5 22 12 NNW 0,0
16.02.2019 04:00:00 11,9 8,9 8 5 19 10 NNW 0,0
16.02.2019 03:00:00 12,2 9,0 7 4 22 12 N 0,0
16.02.2019 02:00:00 12,5 9,3 10 5 21 11 N 0,0
16.02.2019 01:00:00 13,0 9,8 8 4 22 12 NNE -
16.02.2019 00:00:00 13,2 9,8 7 4 24 13 N 0,0
15.02.2019 23:00:00 13,3 9,9 7 4 23 12 N 0,0
15.02.2019 22:00:00 13,1 9,5 8 4 22 12 N 0,0
15.02.2019 21:00:00 13,1 9,5 8 4 22 12 N 0,0
15.02.2019 20:00:00 12,9 9,2 8 5 21 11 NNE 0,0
15.02.2019 19:00:00 13,4 9,3 7 4 17 9 NNE -
15.02.2019 18:00:00 14,1 9,1 8 4 25 14 NNE 0,0
15.02.2019 17:00:00 14,3 9,1 8 4 24 13 NE 0,0
15.02.2019 16:00:00 14,6 9,2 9 5 24 13 NE 0,0
15.02.2019 15:00:00 14,7 8,6 9 5 22 12 NE 0,0
15.02.2019 14:00:00 14,8 8,5 8 4 25 13 NE 0,0
15.02.2019 13:00:00 14,5 8,7 11 6 26 14 NE -
15.02.2019 12:00:00 14,5 8,5 9 5 23 12 NNE 0,0
15.02.2019 11:00:00 13,9 8,1 9 5 24 13 N 0,0
15.02.2019 10:00:00 13,4 7,6 8 4 20 11 NNW 0,0
15.02.2019 09:00:00 12,3 7,6 6 4 21 11 NNW 0,0
15.02.2019 08:00:00 11,0 6,9 7 4 17 9 NNW 0,0
15.02.2019 07:00:00 10,7 6,8 6 3 18 10 N -
15.02.2019 06:00:00 10,4 6,6 8 4 17 9 N 0,0
15.02.2019 05:00:00 10,9 7,0 8 5 18 10 NNW 0,0
15.02.2019 04:00:00 11,2 7,3 8 5 16 9 N 0,0
15.02.2019 03:00:00 11,6 7,9 7 4 17 9 N 0,0
15.02.2019 02:00:00 11,6 8,1 8 4 19 10 N 0,0
15.02.2019 01:00:00 11,7 8,2 5 3 13 7 NNW -
15.02.2019 00:00:00 11,8 8,3 5 3 11 6 NNW 0,0
14.02.2019 23:00:00 11,7 7,8 4 2 13 7 NW 0,0
14.02.2019 22:00:00 12,1 8,0 4 2 13 7 NNW 0,0
14.02.2019 21:00:00 12,5 8,0 4 2 14 7 N 0,0
14.02.2019 20:00:00 12,9 8,2 5 3 15 8 N 0,0
14.02.2019 19:00:00 13,5 7,9 5 3 19 11 NNE -
14.02.2019 18:00:00 14,0 8,4 7 4 24 13 ENE 0,0
14.02.2019 17:00:00 14,5 8,7 8 5 28 15 NE 0,0
14.02.2019 16:00:00 14,7 8,4 9 5 28 15 NE 0,0
14.02.2019 15:00:00 15,5 8,3 10 5 34 18 NE 0,0
14.02.2019 14:00:00 15,1 7,7 12 6 27 15 NE 0,0
14.02.2019 13:00:00 14,7 7,0 13 7 27 15 ENE -
14.02.2019 12:00:00 14,6 7,2 9 5 27 14 NNE 0,0
14.02.2019 11:00:00 14,2 6,8 9 5 25 13 NE 0,0
14.02.2019 10:00:00 12,3 6,6 6 4 16 9 NNW 0,0
14.02.2019 09:00:00 11,4 6,7 7 4 14 7 N 0,0
14.02.2019 08:00:00 10,2 5,8 5 3 13 7 NNW 0,0
14.02.2019 07:00:00 10,4 6,0 8 4 16 9 NNW -
14.02.2019 06:00:00 10,6 6,0 7 4 14 8 N 0,0
14.02.2019 05:00:00 10,9 6,3 6 3 13 7 N 0,0
14.02.2019 04:00:00 11,5 6,2 4 2 12 7 N 0,0
14.02.2019 03:00:00 12,2 6,7 4 2 13 7 NNW 0,0
14.02.2019 02:00:00 12,6 6,9 3 2 13 7 NE 0,0
14.02.2019 01:00:00 12,1 6,6 3 1 9 5 N -
14.02.2019 00:00:00 11,6 6,5 1 1 9 5 NW 0,0
13.02.2019 23:00:00 11,2 5,9 3 2 7 4 N 0,0
13.02.2019 22:00:00 11,4 5,9 4 2 8 4 NNW 0,0
13.02.2019 21:00:00 12,0 6,1 3 1 7 4 NNE 0,0
13.02.2019 20:00:00 12,6 6,2 2 1 9 5 NE 0,0
13.02.2019 19:00:00 13,3 6,0 3 2 15 8 NE -
13.02.2019 18:00:00 13,9 5,8 9 5 19 10 NE 0,0
13.02.2019 17:00:00 14,8 7,1 8 4 21 11 NE 0,0
13.02.2019 16:00:00 14,7 6,8 10 6 23 13 ENE 0,0
13.02.2019 15:00:00 15,2 7,0 8 5 21 11 ENE 0,0
13.02.2019 14:00:00 14,9 7,5 9 5 18 10 NE 0,0
13.02.2019 13:00:00 - - - - - - - -
13.02.2019 12:00:00 14,2 8,6 5 3 13 7 NNE 0,0
13.02.2019 11:00:00 12,7 8,8 5 3 10 6 N 0,0
13.02.2019 10:00:00 10,3 7,7 3 2 10 5 NE 0,0
13.02.2019 09:00:00 7,5 6,3 1 1 5 3 NE 0,0
13.02.2019 08:00:00 5,8 4,6 2 1 4 2 NNE 0,0
13.02.2019 07:00:00 6,4 5,2 1 1 4 2 NE -
13.02.2019 06:00:00 6,2 4,8 1 0 4 2 N 0,0
13.02.2019 05:00:00 6,7 5,2 1 0 4 2 N 0,0
13.02.2019 04:00:00 6,9 5,2 0 0 3 2 N 0,0
13.02.2019 03:00:00 7,5 5,8 0 0 4 2 N 0,0
13.02.2019 02:00:00 7,9 5,9 1 1 - - NE -
13.02.2019 01:00:00 8,2 5,8 1 0 5 3 N -
13.02.2019 00:00:00 9,6 7,0 1 1 5 3 NE 0,0
12.02.2019 23:00:00 10,2 7,4 1 0 4 2 N 0,0
12.02.2019 22:00:00 10,8 7,7 0 0 4 2 NNW 0,0
12.02.2019 21:00:00 11,7 8,0 1 1 5 3 NW 0,0
12.02.2019 20:00:00 12,6 8,5 1 0 7 4 NE 0,0
12.02.2019 19:00:00 13,4 8,7 3 1 12 6 NE -
12.02.2019 18:00:00 13,9 8,5 5 3 15 8 NE 0,0
12.02.2019 17:00:00 14,4 8,8 5 3 15 8 ENE 0,0
12.02.2019 16:00:00 14,6 8,6 5 3 16 9 ENE 0,0
12.02.2019 15:00:00 14,6 8,1 7 4 20 11 ENE 0,0
12.02.2019 14:00:00 15,4 7,9 6 3 19 10 ENE 0,0
12.02.2019 13:00:00 - - - - - - - -
12.02.2019 12:00:00 14,9 8,6 6 3 16 9 NNE 0,0
12.02.2019 11:00:00 14,4 8,6 3 2 11 6 N 0,0
12.02.2019 10:00:00 12,4 8,1 4 2 12 6 NNW 0,0
12.02.2019 09:00:00 10,4 7,3 3 2 10 5 NNW 0,0
12.02.2019 08:00:00 9,6 6,5 1 1 6 4 N 0,0
12.02.2019 07:00:00 9,7 6,4 4 2 6 3 NNE -
12.02.2019 06:00:00 10,4 7,1 3 2 11 6 N 0,0
12.02.2019 05:00:00 10,5 7,2 5 3 11 6 NNW 0,0
12.02.2019 04:00:00 10,7 7,4 3 2 6 4 N 0,0
12.02.2019 03:00:00 11,5 8,2 1 1 9 5 NNE 0,0
12.02.2019 02:00:00 11,9 8,2 3 2 9 5 N 0,0
12.02.2019 01:00:00 12,7 8,6 2 1 7 4 NNW -
12.02.2019 00:00:00 13,6 9,1 2 1 11 6 N 0,0
11.02.2019 23:00:00 13,8 8,9 6 3 12 7 NNE 0,0
11.02.2019 22:00:00 14,0 9,2 3 2 11 6 NE 0,0
11.02.2019 21:00:00 14,2 9,4 4 2 15 8 NE 0,0
11.02.2019 20:00:00 14,2 9,6 4 2 19 10 ENE 0,0
11.02.2019 19:00:00 14,7 10,3 9 5 23 12 ENE -
11.02.2019 18:00:00 16,3 11,0 8 5 19 10 NE 0,0
11.02.2019 17:00:00 16,8 10,2 5 3 13 7 S 0,0
11.02.2019 16:00:00 16,3 11,3 5 3 13 7 S 0,0
11.02.2019 15:00:00 16,5 10,4 6 3 23 13 SW 0,0
11.02.2019 14:00:00 20,8 7,8 4 2 20 11 NNW 0,0
11.02.2019 13:00:00 19,9 8,3 4 2 13 7 NW -

tt = Température de l'air
td = dewpoint
ff = Vitesse du vent
fx = gusts
dd = Direction du vent
rr = Quantités de précipitations

stations d'obs. à proximité